This is the latest recevied weather packets stored in our database for station/object SP4IM-13. If no packets are shown the sender has not sent any weather packets the latest 10 day(s).
| Time | Temp. | Humidity | Pressure | Rain* | Wind** | Luminosity | Snow |
|---|---|---|---|---|---|---|---|
| 1777352407 | 1.67° C | 63% | 1020 hPa | - | - | - | - |
| 1777351808 | 1.11° C | 69% | 1020 hPa | - | - | - | - |
| 1777351207 | 0.56° C | 77% | 1020 hPa | - | - | - | - |
| 1777350607 | 0.56° C | 84% | 1020 hPa | - | - | - | - |
| 1777349404 | 0° C | 89% | 1020 hPa | - | - | - | - |
| 1777348809 | 0° C | 88% | 1019 hPa | - | - | - | - |
| 1777348203 | -0.56° C | 87% | 1019 hPa | - | - | - | - |
| 1777347602 | -0.56° C | 87% | 1019 hPa | - | - | - | - |
| 1777347005 | 0° C | 87% | 1019 hPa | - | - | - | - |
| 1777345808 | 0° C | 86% | 1019 hPa | - | - | - | - |
| 1777343402 | -0.56° C | 85% | 1019 hPa | - | - | - | - |
| 1777334402 | 1.67° C | 75% | 1018 hPa | - | - | - | - |
| 1777311002 | 7.78° C | 45% | 1017 hPa | - | - | - | - |
| 1777310403 | 8.33° C | 45% | 1017 hPa | - | - | - | - |
| 1777308603 | 8.89° C | 45% | 1016 hPa | - | - | - | - |
| 1777306204 | 9.44° C | 45% | 1016 hPa | - | - | - | - |
| 1777304402 | 9.44° C | 46% | 1016 hPa | - | - | - | - |
| 1777302002 | 10° C | 45% | 1016 hPa | - | - | - | - |
| 1777300802 | 10.56° C | 45% | 1016 hPa | - | - | - | - |
| 1777300202 | 10.56° C | 45% | 1016 hPa | - | - | - | - |
| 1777299602 | 10.56° C | 45% | 1016 hPa | - | - | - | - |
| 1777299002 | 10.56° C | 45% | 1016 hPa | - | - | - | - |
| 1777295402 | 10.56° C | 45% | 1016 hPa | - | - | - | - |
| 1777294204 | 10.56° C | 44% | 1016 hPa | - | - | - | - |
| 1777293002 | 10.56° C | 44% | 1016 hPa | - | - | - | - |
* Rain since midnight (hover to see other rain measurements)
** Current wind speed in m/s (hover to see current wind gust speed)